createdAt,value
2023-05-20T07:15:57.224Z,48.20
2023-05-20T07:17:59.333Z,48.10
2023-05-20T07:20:01.127Z,48.00
2023-05-20T07:22:02.800Z,48.10
2023-05-20T07:24:04.704Z,48.10
2023-05-20T07:26:06.283Z,48.00
2023-05-20T07:28:08.026Z,47.90
2023-05-20T07:30:09.740Z,47.90
2023-05-20T07:32:11.510Z,47.90
2023-05-20T07:34:13.143Z,47.90
2023-05-20T07:36:14.925Z,48.30
2023-05-20T07:38:16.597Z,48.20
2023-05-20T07:40:18.299Z,48.20
2023-05-20T07:42:19.933Z,48.20
2023-05-20T07:44:22.279Z,48.20
2023-05-20T07:46:23.944Z,48.20
2023-05-20T07:48:25.585Z,48.50
2023-05-20T07:50:27.213Z,48.50
2023-05-20T07:52:28.893Z,48.70
2023-05-20T07:54:30.583Z,48.50
2023-05-20T07:56:33.321Z,48.60
2023-05-20T07:58:35.210Z,48.50
2023-05-20T08:00:36.877Z,48.30
2023-05-20T08:02:39.093Z,48.40
2023-05-20T08:04:41.211Z,48.30
2023-05-20T08:06:44.485Z,48.20
2023-05-20T08:08:46.464Z,48.20
2023-05-20T08:10:48.064Z,48.20
2023-05-20T08:12:49.769Z,48.20
2023-05-20T08:14:51.393Z,48.10
2023-05-20T08:16:55.033Z,48.00
2023-05-20T08:18:56.819Z,48.00
2023-05-20T08:20:58.985Z,47.90
2023-05-20T08:23:00.569Z,47.90
2023-05-20T08:25:02.234Z,47.90
2023-05-20T08:27:05.125Z,47.90
2023-05-20T08:29:08.374Z,47.90
2023-05-20T08:31:10.141Z,48.00
2023-05-20T08:33:13.026Z,47.90
2023-05-20T08:35:14.663Z,47.90
2023-05-20T08:37:16.750Z,47.90
2023-05-20T08:39:18.364Z,47.90
2023-05-20T08:41:22.314Z,47.90
2023-05-20T08:43:24.329Z,47.80
2023-05-20T08:45:28.488Z,47.90
2023-05-20T08:47:30.207Z,47.90
2023-05-20T08:49:32.183Z,47.90
2023-05-20T08:51:36.177Z,47.80
2023-05-20T08:53:37.819Z,47.80
2023-05-20T08:55:43.192Z,47.70
2023-05-20T08:57:45.914Z,47.70
2023-05-20T08:59:47.594Z,47.70
2023-05-20T09:01:49.240Z,47.60
2023-05-20T09:03:51.082Z,47.60
2023-05-20T09:05:53.218Z,47.60
2023-05-20T09:08:05.415Z,47.50
2023-05-20T09:10:07.352Z,47.50
2023-05-20T09:12:09.297Z,47.50
2023-05-20T09:14:10.934Z,47.40
2023-05-20T09:16:12.758Z,47.40
2023-05-20T09:18:14.506Z,47.40
2023-05-20T09:20:16.307Z,47.40
2023-05-20T09:22:36.306Z,47.30
2023-05-20T09:24:37.935Z,47.30
2023-05-20T09:26:40.104Z,47.30
2023-05-20T09:28:42.711Z,47.30
2023-05-20T09:30:46.012Z,47.30
2023-05-20T09:32:58.164Z,47.30
2023-05-20T09:35:01.321Z,47.30
2023-05-20T09:37:03.005Z,47.20
2023-05-20T09:39:05.803Z,47.20
2023-05-20T09:41:08.836Z,47.30
2023-05-20T09:43:11.504Z,47.20
2023-05-20T09:45:13.460Z,47.20
2023-05-20T09:47:15.855Z,47.30
2023-05-20T09:49:17.930Z,47.10
2023-05-20T09:51:19.498Z,47.20
2023-05-20T09:53:22.165Z,47.20
2023-05-20T09:55:24.739Z,47.10
2023-05-20T09:57:26.443Z,47.10
2023-05-20T09:59:28.918Z,47.10
2023-05-20T10:01:30.604Z,47.10
2023-05-20T10:03:33.266Z,47.10
2023-05-20T10:05:37.408Z,47.00
2023-05-20T10:07:49.582Z,47.00
2023-05-20T10:10:00.064Z,47.00
2023-05-20T10:12:20.216Z,47.70
2023-05-20T10:14:35.676Z,46.90
2023-05-20T10:17:12.919Z,46.90
2023-05-20T10:19:17.433Z,46.90
2023-05-20T10:21:24.281Z,46.90
2023-05-20T10:23:30.066Z,46.90
2023-05-20T10:25:31.702Z,46.90
2023-05-20T10:27:46.327Z,46.80
2023-05-20T10:29:51.894Z,46.90
2023-05-20T10:31:53.563Z,46.90
2023-05-20T10:33:56.073Z,46.80
2023-05-20T10:36:00.627Z,46.90
2023-05-20T10:38:10.608Z,46.80
2023-05-20T10:40:16.098Z,46.90
2023-05-20T10:42:27.440Z,46.80
2023-05-20T10:44:29.081Z,46.80
2023-05-20T10:46:48.270Z,46.80
2023-05-20T10:48:56.195Z,46.80
2023-05-20T10:50:59.793Z,46.80
2023-05-20T10:53:18.595Z,46.80
2023-05-20T10:55:34.914Z,46.70
2023-05-20T10:57:36.635Z,46.80
2023-05-20T10:59:38.303Z,46.70
2023-05-20T11:01:40.049Z,46.70
2023-05-20T11:03:42.157Z,46.70
2023-05-20T11:05:44.868Z,46.70
2023-05-20T11:07:46.586Z,46.70
2023-05-20T11:09:51.169Z,46.70
2023-05-20T11:11:54.064Z,46.70
2023-05-20T11:13:57.143Z,46.70
2023-05-20T11:15:59.242Z,46.60
2023-05-20T11:18:02.051Z,46.70
2023-05-20T11:20:04.734Z,46.80
2023-05-20T11:22:07.855Z,46.60
2023-05-20T11:24:09.620Z,46.70
2023-05-20T11:26:11.371Z,46.60
2023-05-20T11:28:14.101Z,46.60
2023-05-20T11:30:19.797Z,46.70
2023-05-20T11:32:21.763Z,46.70
2023-05-20T11:34:26.439Z,46.60
2023-05-20T11:36:30.320Z,46.60
2023-05-20T11:38:32.606Z,46.60
2023-05-20T11:40:42.712Z,46.70
2023-05-20T11:42:55.690Z,46.60
2023-05-20T11:45:00.028Z,46.60
2023-05-20T11:47:03.748Z,46.60
2023-05-20T11:49:07.362Z,46.60
2023-05-20T11:51:08.955Z,46.60
2023-05-20T11:53:11.591Z,46.50
2023-05-20T11:55:15.284Z,46.50
2023-05-20T11:57:16.846Z,46.50
2023-05-20T11:59:18.489Z,46.50
2023-05-20T12:01:22.947Z,46.50
2023-05-20T12:03:25.283Z,46.50
2023-05-20T12:05:27.000Z,46.50
2023-05-20T12:07:28.582Z,46.50
2023-05-20T12:09:30.227Z,46.50
2023-05-20T12:11:32.312Z,46.50
2023-05-20T12:13:35.374Z,46.50
2023-05-20T12:15:40.694Z,46.50
2023-05-20T12:17:47.082Z,46.50
2023-05-20T12:19:48.787Z,46.50
2023-05-20T12:21:50.486Z,46.60
2023-05-20T12:23:57.400Z,46.50
2023-05-20T12:25:59.524Z,46.50
2023-05-20T12:28:01.967Z,46.50
2023-05-20T12:30:03.736Z,46.50
2023-05-20T12:32:05.620Z,46.50
2023-05-20T12:34:07.392Z,46.50
2023-05-20T12:36:09.008Z,46.50
2023-05-20T12:38:10.707Z,46.50
2023-05-20T12:40:12.768Z,46.50
2023-05-20T12:42:14.379Z,46.50
2023-05-20T12:44:16.024Z,46.50
2023-05-20T12:46:18.181Z,46.40
2023-05-20T12:48:19.804Z,46.50
2023-05-20T12:50:21.899Z,47.10
2023-05-20T12:52:23.671Z,46.40
2023-05-20T12:54:28.120Z,46.40
2023-05-20T12:56:30.493Z,46.40
2023-05-20T12:58:32.067Z,46.40
2023-05-20T13:00:33.862Z,47.00
2023-05-20T13:02:37.777Z,46.30
2023-05-20T13:04:41.360Z,46.30
2023-05-20T13:06:43.099Z,46.30
2023-05-20T13:08:45.437Z,46.30
2023-05-20T13:10:47.058Z,46.30
2023-05-20T13:12:48.627Z,46.30
2023-05-20T13:14:50.236Z,46.40
2023-05-20T13:16:55.476Z,46.30
2023-05-20T13:18:57.185Z,46.30
2023-05-20T13:20:58.816Z,46.30
2023-05-20T13:23:00.530Z,46.30
2023-05-20T13:25:02.197Z,46.30
2023-05-20T13:27:04.672Z,46.30
2023-05-20T13:29:06.312Z,46.30
2023-05-20T13:31:07.945Z,46.30
2023-05-20T13:33:09.562Z,46.30
2023-05-20T13:35:12.881Z,46.30
2023-05-20T13:37:14.492Z,46.20
2023-05-20T13:39:16.524Z,46.20
2023-05-20T13:41:18.188Z,46.20
2023-05-20T13:43:19.756Z,46.20
2023-05-20T13:45:23.128Z,46.20
2023-05-20T13:47:24.922Z,46.20
2023-05-20T13:49:26.692Z,46.20
2023-05-20T13:51:28.318Z,46.20
2023-05-20T13:53:30.042Z,46.20
2023-05-20T13:55:31.890Z,46.10
2023-05-20T13:57:33.481Z,46.20
2023-05-20T13:59:35.273Z,46.10
2023-05-20T14:01:40.476Z,46.10
2023-05-20T14:03:43.258Z,46.90
2023-05-20T14:05:45.237Z,46.20
2023-05-20T14:07:46.849Z,46.10
2023-05-20T14:09:48.581Z,46.10
2023-05-20T14:11:51.366Z,46.10
2023-05-20T14:13:53.071Z,46.10
2023-05-20T14:15:54.937Z,46.10
2023-05-20T14:17:59.461Z,46.10
2023-05-20T14:20:01.183Z,46.10
2023-05-20T14:22:03.357Z,46.10
2023-05-20T14:24:05.196Z,46.20
2023-05-20T14:26:06.870Z,46.20
2023-05-20T14:28:08.577Z,46.10
2023-05-20T14:30:10.709Z,46.10
2023-05-20T14:32:13.476Z,46.10
2023-05-20T14:34:15.198Z,46.10
2023-05-20T14:36:16.880Z,46.10
2023-05-20T14:38:20.610Z,46.10
2023-05-20T14:40:22.262Z,46.10
2023-05-20T14:42:23.868Z,46.10
2023-05-20T14:44:25.496Z,46.10
2023-05-20T14:46:27.227Z,46.10
2023-05-20T14:48:28.986Z,46.20
2023-05-20T14:50:30.629Z,46.10
2023-05-20T14:52:32.214Z,46.10
2023-05-20T14:54:33.834Z,46.10
2023-05-20T14:56:35.575Z,46.10
2023-05-20T14:58:37.222Z,46.10
2023-05-20T15:00:38.955Z,46.10
2023-05-20T15:02:40.723Z,46.10
2023-05-20T15:04:44.174Z,46.10
2023-05-20T15:06:46.133Z,46.10
2023-05-20T15:08:47.801Z,46.10
2023-05-20T15:10:50.526Z,46.10
2023-05-20T15:12:53.392Z,46.10
2023-05-20T15:14:55.136Z,46.10
2023-05-20T15:16:56.849Z,46.10
2023-05-20T15:18:58.526Z,46.10
2023-05-20T15:21:03.174Z,46.00
2023-05-20T15:23:04.788Z,46.10
2023-05-20T15:25:06.601Z,46.00
2023-05-20T15:27:08.206Z,46.00
2023-05-20T15:29:09.821Z,46.00
2023-05-20T15:31:11.425Z,46.00
2023-05-20T15:33:13.081Z,46.00
2023-05-20T15:35:14.732Z,46.00
2023-05-20T15:37:16.526Z,46.00
2023-05-20T15:39:18.124Z,46.20
2023-05-20T15:41:21.573Z,46.10
2023-05-20T15:43:23.184Z,46.10
2023-05-20T15:45:24.807Z,46.10
2023-05-20T15:47:26.494Z,46.60
2023-05-20T15:49:28.544Z,46.50
2023-05-20T15:51:30.228Z,46.60
2023-05-20T15:53:32.205Z,46.80
2023-05-20T15:55:33.838Z,46.80
2023-05-20T15:57:35.413Z,46.80
2023-05-20T15:59:37.098Z,46.90
2023-05-20T16:01:40.258Z,46.60
2023-05-20T16:03:42.925Z,46.60
2023-05-20T16:05:44.582Z,46.80
2023-05-20T16:07:46.785Z,47.00
2023-05-20T16:09:48.398Z,47.30
2023-05-20T16:11:50.035Z,47.10
2023-05-20T16:13:51.769Z,47.30
2023-05-20T16:15:57.470Z,47.40
2023-05-20T16:17:59.241Z,47.60
2023-05-20T16:20:00.955Z,48.80
2023-05-20T16:22:02.626Z,49.80
2023-05-20T16:24:04.520Z,49.80
2023-05-20T16:26:06.245Z,49.60
2023-05-20T16:28:07.912Z,47.60
2023-05-20T16:30:09.836Z,46.80
2023-05-20T16:32:11.683Z,47.30
2023-05-20T16:34:14.060Z,46.30
2023-05-20T16:36:15.891Z,45.80
2023-05-20T16:38:17.438Z,44.80
2023-05-20T16:40:19.072Z,44.80
2023-05-20T16:42:20.672Z,44.80
2023-05-20T16:44:22.293Z,45.40
2023-05-20T16:46:23.960Z,45.60
2023-05-20T16:48:26.688Z,45.40
2023-05-20T16:50:28.391Z,45.00
2023-05-20T16:52:30.122Z,44.80
2023-05-20T16:54:32.548Z,44.00
2023-05-20T16:56:35.311Z,44.70
2023-05-20T16:58:37.150Z,44.20
2023-05-20T17:00:38.866Z,44.40
2023-05-20T17:02:40.472Z,43.90
2023-05-20T17:04:42.921Z,43.70
2023-05-20T17:06:44.765Z,43.40
2023-05-20T17:08:46.431Z,43.90
2023-05-20T17:10:51.252Z,43.80
2023-05-20T17:12:54.276Z,43.60
2023-05-20T17:14:56.249Z,43.70
2023-05-20T17:16:57.878Z,43.90
2023-05-20T17:18:59.597Z,44.70
2023-05-20T17:21:01.378Z,44.90
2023-05-20T17:23:03.345Z,44.70
2023-05-20T17:25:05.493Z,44.90
2023-05-20T17:27:07.172Z,45.00
2023-05-20T17:29:08.762Z,45.20
2023-05-20T17:31:10.511Z,45.10
2023-05-20T17:33:12.373Z,45.70
2023-05-20T17:35:14.155Z,45.90
2023-05-20T17:37:15.884Z,45.90
2023-05-20T17:39:17.479Z,46.10
2023-05-20T17:41:19.141Z,46.10
2023-05-20T17:43:21.194Z,46.80
2023-05-20T17:45:22.894Z,46.80
2023-05-20T17:47:24.601Z,47.00
2023-05-20T17:49:26.328Z,47.00
2023-05-20T17:51:27.896Z,47.10
2023-05-20T17:53:29.534Z,47.30
2023-05-20T17:55:32.522Z,47.30
2023-05-20T17:57:34.207Z,47.40
2023-05-20T17:59:36.885Z,47.60
2023-05-20T18:01:38.988Z,47.70
2023-05-20T18:03:40.875Z,47.70
2023-05-20T18:05:42.610Z,48.00
2023-05-20T18:07:44.345Z,48.00
2023-05-20T18:09:46.063Z,48.00
2023-05-20T18:11:47.678Z,48.00
2023-05-20T18:13:49.286Z,48.20
2023-05-20T18:15:52.067Z,48.30
2023-05-20T18:17:54.202Z,48.40
2023-05-20T18:19:56.107Z,48.50
2023-05-20T18:21:58.556Z,48.40
2023-05-20T18:24:00.250Z,48.50
2023-05-20T18:26:06.522Z,48.50
2023-05-20T18:28:08.828Z,48.70
2023-05-20T18:30:10.569Z,49.00
2023-05-20T18:32:12.385Z,49.00
2023-05-20T18:34:16.175Z,49.10
2023-05-20T18:36:17.991Z,48.90
2023-05-20T18:38:20.018Z,48.80
2023-05-20T18:40:21.579Z,48.90
2023-05-20T18:42:23.484Z,48.90
2023-05-20T18:44:25.392Z,49.00
2023-05-20T18:46:26.993Z,49.00
2023-05-20T18:48:28.701Z,48.90
2023-05-20T18:50:30.848Z,49.10
2023-05-20T18:52:32.614Z,49.50
2023-05-20T18:54:34.209Z,50.20
2023-05-20T18:56:35.951Z,50.00
2023-05-20T18:58:37.679Z,50.00
2023-05-20T19:00:39.315Z,50.90
2023-05-20T19:02:41.746Z,50.00
2023-05-20T19:04:43.405Z,50.50
2023-05-20T19:06:45.071Z,50.80
2023-05-20T19:08:49.099Z,51.10
2023-05-20T19:10:50.722Z,50.70
2023-05-20T19:12:52.345Z,51.40
2023-05-20T19:14:54.009Z,51.10
2023-05-20T19:16:55.772Z,51.70
2023-05-20T19:18:57.436Z,52.50
2023-05-20T19:20:59.048Z,52.60
